sensor_id;sensor_type;location;lat;lon;timestamp;P1;durP1;ratioP1;P2;durP2;ratioP2
37517;SDS011;23366;52.498;13.446;2023-02-28T00:00:24;5.85;;;2.30;;
37517;SDS011;23366;52.498;13.446;2023-02-28T00:02:49;8.98;;;2.03;;
37517;SDS011;23366;52.498;13.446;2023-02-28T00:05:16;4.15;;;2.15;;
37517;SDS011;23366;52.498;13.446;2023-02-28T00:07:44;5.50;;;1.90;;
37517;SDS011;23366;52.498;13.446;2023-02-28T00:10:11;6.78;;;2.38;;
37517;SDS011;23366;52.498;13.446;2023-02-28T00:12:38;6.60;;;2.75;;
37517;SDS011;23366;52.498;13.446;2023-02-28T00:15:10;3.47;;;2.00;;
37517;SDS011;23366;52.498;13.446;2023-02-28T00:17:36;3.55;;;2.00;;
37517;SDS011;23366;52.498;13.446;2023-02-28T00:20:03;4.45;;;2.10;;
37517;SDS011;23366;52.498;13.446;2023-02-28T00:22:32;2.72;;;1.73;;
37517;SDS011;23366;52.498;13.446;2023-02-28T00:24:58;6.10;;;2.40;;
37517;SDS011;23366;52.498;13.446;2023-02-28T00:27:23;4.60;;;2.03;;
37517;SDS011;23366;52.498;13.446;2023-02-28T00:29:49;5.22;;;1.80;;
37517;SDS011;23366;52.498;13.446;2023-02-28T00:32:14;8.20;;;2.00;;
37517;SDS011;23366;52.498;13.446;2023-02-28T00:34:41;3.38;;;1.92;;
37517;SDS011;23366;52.498;13.446;2023-02-28T00:37:07;8.85;;;2.45;;
37517;SDS011;23366;52.498;13.446;2023-02-28T00:39:36;3.53;;;2.42;;
37517;SDS011;23366;52.498;13.446;2023-02-28T00:42:02;2.13;;;1.70;;
37517;SDS011;23366;52.498;13.446;2023-02-28T00:44:29;3.53;;;2.45;;
37517;SDS011;23366;52.498;13.446;2023-02-28T00:46:54;3.05;;;2.00;;
37517;SDS011;23366;52.498;13.446;2023-02-28T00:49:21;9.20;;;3.10;;
37517;SDS011;23366;52.498;13.446;2023-02-28T00:51:47;4.13;;;2.20;;
37517;SDS011;23366;52.498;13.446;2023-02-28T00:54:13;6.82;;;1.90;;
37517;SDS011;23366;52.498;13.446;2023-02-28T00:56:38;3.75;;;2.60;;
37517;SDS011;23366;52.498;13.446;2023-02-28T00:59:05;6.40;;;2.20;;
37517;SDS011;23366;52.498;13.446;2023-02-28T01:01:31;3.75;;;1.95;;
37517;SDS011;23366;52.498;13.446;2023-02-28T01:03:56;3.58;;;1.75;;
37517;SDS011;23366;52.498;13.446;2023-02-28T01:06:22;6.63;;;2.58;;
37517;SDS011;23366;52.498;13.446;2023-02-28T01:08:47;3.72;;;2.70;;
37517;SDS011;23366;52.498;13.446;2023-02-28T01:11:15;4.45;;;2.33;;
37517;SDS011;23366;52.498;13.446;2023-02-28T01:13:42;6.80;;;2.05;;
37517;SDS011;23366;52.498;13.446;2023-02-28T01:16:09;7.75;;;2.83;;
37517;SDS011;23366;52.498;13.446;2023-02-28T01:18:35;4.80;;;2.30;;
37517;SDS011;23366;52.498;13.446;2023-02-28T01:21:06;6.72;;;3.35;;
37517;SDS011;23366;52.498;13.446;2023-02-28T01:23:37;3.10;;;2.08;;
37517;SDS011;23366;52.498;13.446;2023-02-28T01:26:03;7.88;;;3.30;;
37517;SDS011;23366;52.498;13.446;2023-02-28T01:28:30;8.02;;;2.05;;
37517;SDS011;23366;52.498;13.446;2023-02-28T01:30:55;3.42;;;2.13;;
37517;SDS011;23366;52.498;13.446;2023-02-28T01:33:21;8.15;;;2.40;;
37517;SDS011;23366;52.498;13.446;2023-02-28T01:35:47;4.57;;;2.63;;
37517;SDS011;23366;52.498;13.446;2023-02-28T01:38:13;10.75;;;2.95;;
37517;SDS011;23366;52.498;13.446;2023-02-28T01:40:39;4.68;;;2.38;;
37517;SDS011;23366;52.498;13.446;2023-02-28T01:43:07;5.55;;;3.30;;
37517;SDS011;23366;52.498;13.446;2023-02-28T01:45:44;4.00;;;2.25;;
37517;SDS011;23366;52.498;13.446;2023-02-28T01:48:10;6.03;;;2.17;;
37517;SDS011;23366;52.498;13.446;2023-02-28T01:50:39;6.00;;;3.30;;
37517;SDS011;23366;52.498;13.446;2023-02-28T01:53:10;4.22;;;2.08;;
37517;SDS011;23366;52.498;13.446;2023-02-28T01:55:40;4.82;;;2.45;;
37517;SDS011;23366;52.498;13.446;2023-02-28T01:58:08;4.85;;;2.88;;
37517;SDS011;23366;52.498;13.446;2023-02-28T02:00:34;8.80;;;2.75;;
37517;SDS011;23366;52.498;13.446;2023-02-28T02:03:01;3.80;;;2.38;;
37517;SDS011;23366;52.498;13.446;2023-02-28T02:05:33;7.47;;;3.20;;
37517;SDS011;23366;52.498;13.446;2023-02-28T02:08:06;3.55;;;2.25;;
37517;SDS011;23366;52.498;13.446;2023-02-28T02:10:36;6.07;;;2.40;;
37517;SDS011;23366;52.498;13.446;2023-02-28T02:13:17;8.45;;;2.60;;
37517;SDS011;23366;52.498;13.446;2023-02-28T02:18:41;4.13;;;2.25;;
37517;SDS011;23366;52.498;13.446;2023-02-28T02:22:15;4.78;;;3.33;;
37517;SDS011;23366;52.498;13.446;2023-02-28T02:27:20;5.43;;;3.05;;
37517;SDS011;23366;52.498;13.446;2023-02-28T02:35:12;6.90;;;3.20;;
37517;SDS011;23366;52.498;13.446;2023-02-28T02:37:45;9.98;;;3.40;;
37517;SDS011;23366;52.498;13.446;2023-02-28T02:40:18;8.93;;;3.80;;
37517;SDS011;23366;52.498;13.446;2023-02-28T02:42:59;4.93;;;2.97;;
37517;SDS011;23366;52.498;13.446;2023-02-28T02:45:35;8.43;;;4.68;;
37517;SDS011;23366;52.498;13.446;2023-02-28T02:48:06;7.50;;;3.75;;
37517;SDS011;23366;52.498;13.446;2023-02-28T02:50:54;6.90;;;3.05;;
37517;SDS011;23366;52.498;13.446;2023-02-28T02:53:23;7.50;;;4.45;;
37517;SDS011;23366;52.498;13.446;2023-02-28T02:55:53;7.85;;;3.38;;
37517;SDS011;23366;52.498;13.446;2023-02-28T02:58:21;8.43;;;3.72;;
37517;SDS011;23366;52.498;13.446;2023-02-28T03:00:52;4.90;;;2.97;;
37517;SDS011;23366;52.498;13.446;2023-02-28T03:03:21;8.13;;;2.83;;
37517;SDS011;23366;52.498;13.446;2023-02-28T03:05:54;6.05;;;3.22;;
37517;SDS011;23366;52.498;13.446;2023-02-28T03:08:24;4.97;;;3.13;;
37517;SDS011;23366;52.498;13.446;2023-02-28T03:10:52;9.13;;;4.50;;
37517;SDS011;23366;52.498;13.446;2023-02-28T03:13:42;5.75;;;3.50;;
37517;SDS011;23366;52.498;13.446;2023-02-28T03:22:06;11.05;;;4.18;;
37517;SDS011;23366;52.498;13.446;2023-02-28T03:27:40;6.32;;;3.05;;
37517;SDS011;23366;52.498;13.446;2023-02-28T03:35:27;7.38;;;3.30;;
37517;SDS011;23366;52.498;13.446;2023-02-28T03:38:03;7.05;;;3.53;;
37517;SDS011;23366;52.498;13.446;2023-02-28T03:40:34;5.22;;;3.22;;
37517;SDS011;23366;52.498;13.446;2023-02-28T03:43:04;5.55;;;3.55;;
37517;SDS011;23366;52.498;13.446;2023-02-28T03:45:36;8.18;;;3.45;;
37517;SDS011;23366;52.498;13.446;2023-02-28T03:50:42;7.65;;;3.45;;
37517;SDS011;23366;52.498;13.446;2023-02-28T03:53:11;5.32;;;2.70;;
37517;SDS011;23366;52.498;13.446;2023-02-28T03:56:30;12.85;;;4.05;;
37517;SDS011;23366;52.498;13.446;2023-02-28T03:58:47;15.93;;;4.50;;
37517;SDS011;23366;52.498;13.446;2023-02-28T04:01:20;5.43;;;2.72;;
37517;SDS011;23366;52.498;13.446;2023-02-28T04:03:50;7.22;;;3.10;;
37517;SDS011;23366;52.498;13.446;2023-02-28T04:06:18;5.85;;;3.22;;
37517;SDS011;23366;52.498;13.446;2023-02-28T04:08:46;12.68;;;3.70;;
37517;SDS011;23366;52.498;13.446;2023-02-28T04:11:16;7.72;;;3.95;;
37517;SDS011;23366;52.498;13.446;2023-02-28T04:13:46;5.72;;;3.10;;
37517;SDS011;23366;52.498;13.446;2023-02-28T04:16:11;6.35;;;3.78;;
37517;SDS011;23366;52.498;13.446;2023-02-28T04:18:37;8.55;;;3.80;;
37517;SDS011;23366;52.498;13.446;2023-02-28T04:21:04;6.45;;;2.83;;
37517;SDS011;23366;52.498;13.446;2023-02-28T04:23:31;4.15;;;2.58;;
37517;SDS011;23366;52.498;13.446;2023-02-28T04:25:56;11.52;;;3.00;;
37517;SDS011;23366;52.498;13.446;2023-02-28T04:28:22;8.18;;;3.83;;
37517;SDS011;23366;52.498;13.446;2023-02-28T04:30:53;6.20;;;3.22;;
37517;SDS011;23366;52.498;13.446;2023-02-28T04:33:19;8.93;;;3.17;;
37517;SDS011;23366;52.498;13.446;2023-02-28T04:35:45;10.52;;;2.90;;
37517;SDS011;23366;52.498;13.446;2023-02-28T04:38:10;10.40;;;4.55;;
37517;SDS011;23366;52.498;13.446;2023-02-28T04:40:36;9.00;;;3.15;;
37517;SDS011;23366;52.498;13.446;2023-02-28T04:43:01;8.23;;;2.78;;
37517;SDS011;23366;52.498;13.446;2023-02-28T04:45:28;11.05;;;2.45;;
37517;SDS011;23366;52.498;13.446;2023-02-28T04:47:58;9.70;;;3.13;;
37517;SDS011;23366;52.498;13.446;2023-02-28T04:50:24;6.93;;;3.53;;
37517;SDS011;23366;52.498;13.446;2023-02-28T04:52:52;6.50;;;3.17;;
37517;SDS011;23366;52.498;13.446;2023-02-28T04:55:17;6.10;;;3.35;;
37517;SDS011;23366;52.498;13.446;2023-02-28T04:57:43;5.35;;;3.38;;
37517;SDS011;23366;52.498;13.446;2023-02-28T05:00:10;6.30;;;3.80;;
37517;SDS011;23366;52.498;13.446;2023-02-28T05:02:37;8.43;;;3.03;;
37517;SDS011;23366;52.498;13.446;2023-02-28T05:05:04;7.50;;;3.80;;
37517;SDS011;23366;52.498;13.446;2023-02-28T05:07:30;6.72;;;3.22;;
37517;SDS011;23366;52.498;13.446;2023-02-28T05:09:55;7.32;;;3.10;;
37517;SDS011;23366;52.498;13.446;2023-02-28T05:12:21;8.75;;;3.75;;
37517;SDS011;23366;52.498;13.446;2023-02-28T05:14:46;10.10;;;4.40;;
37517;SDS011;23366;52.498;13.446;2023-02-28T05:17:12;7.95;;;3.08;;
37517;SDS011;23366;52.498;13.446;2023-02-28T05:19:45;5.68;;;3.10;;
37517;SDS011;23366;52.498;13.446;2023-02-28T05:22:12;7.30;;;4.00;;
37517;SDS011;23366;52.498;13.446;2023-02-28T05:24:40;6.13;;;3.05;;
37517;SDS011;23366;52.498;13.446;2023-02-28T05:27:07;10.07;;;4.55;;
37517;SDS011;23366;52.498;13.446;2023-02-28T05:29:33;8.15;;;3.72;;
37517;SDS011;23366;52.498;13.446;2023-02-28T05:32:02;5.90;;;4.20;;
37517;SDS011;23366;52.498;13.446;2023-02-28T05:34:28;7.57;;;3.38;;
37517;SDS011;23366;52.498;13.446;2023-02-28T05:36:53;5.00;;;2.67;;
37517;SDS011;23366;52.498;13.446;2023-02-28T05:39:19;4.68;;;2.90;;
37517;SDS011;23366;52.498;13.446;2023-02-28T05:41:44;6.90;;;3.83;;
37517;SDS011;23366;52.498;13.446;2023-02-28T05:44:10;7.38;;;3.80;;
37517;SDS011;23366;52.498;13.446;2023-02-28T05:46:36;8.93;;;4.43;;
37517;SDS011;23366;52.498;13.446;2023-02-28T05:49:04;6.35;;;3.72;;
37517;SDS011;23366;52.498;13.446;2023-02-28T05:51:29;7.68;;;3.55;;
37517;SDS011;23366;52.498;13.446;2023-02-28T05:53:58;6.95;;;4.28;;
37517;SDS011;23366;52.498;13.446;2023-02-28T05:56:26;5.85;;;2.80;;
37517;SDS011;23366;52.498;13.446;2023-02-28T05:58:52;4.90;;;2.67;;
37517;SDS011;23366;52.498;13.446;2023-02-28T06:01:21;6.43;;;2.50;;
37517;SDS011;23366;52.498;13.446;2023-02-28T06:03:58;9.00;;;3.85;;
37517;SDS011;23366;52.498;13.446;2023-02-28T06:06:25;9.07;;;5.07;;
37517;SDS011;23366;52.498;13.446;2023-02-28T06:08:50;10.18;;;3.83;;
37517;SDS011;23366;52.498;13.446;2023-02-28T06:11:15;6.63;;;3.67;;
37517;SDS011;23366;52.498;13.446;2023-02-28T06:13:41;7.05;;;4.65;;
37517;SDS011;23366;52.498;13.446;2023-02-28T06:16:08;10.75;;;3.00;;
37517;SDS011;23366;52.498;13.446;2023-02-28T06:18:35;7.10;;;3.60;;
37517;SDS011;23366;52.498;13.446;2023-02-28T06:21:02;8.60;;;4.75;;
37517;SDS011;23366;52.498;13.446;2023-02-28T06:23:28;5.80;;;3.63;;
37517;SDS011;23366;52.498;13.446;2023-02-28T06:25:53;6.35;;;4.18;;
37517;SDS011;23366;52.498;13.446;2023-02-28T06:28:22;8.07;;;4.32;;
37517;SDS011;23366;52.498;13.446;2023-02-28T06:30:48;10.68;;;4.05;;
37517;SDS011;23366;52.498;13.446;2023-02-28T06:33:13;8.07;;;3.63;;
37517;SDS011;23366;52.498;13.446;2023-02-28T06:35:39;14.13;;;7.13;;
37517;SDS011;23366;52.498;13.446;2023-02-28T06:38:04;6.25;;;3.38;;
37517;SDS011;23366;52.498;13.446;2023-02-28T06:40:30;9.45;;;4.43;;
37517;SDS011;23366;52.498;13.446;2023-02-28T06:42:59;7.65;;;3.65;;
37517;SDS011;23366;52.498;13.446;2023-02-28T06:45:24;6.65;;;3.70;;
37517;SDS011;23366;52.498;13.446;2023-02-28T06:47:51;13.50;;;3.70;;
37517;SDS011;23366;52.498;13.446;2023-02-28T06:50:17;11.18;;;3.60;;
37517;SDS011;23366;52.498;13.446;2023-02-28T06:52:44;6.93;;;4.22;;
37517;SDS011;23366;52.498;13.446;2023-02-28T06:55:10;4.65;;;3.47;;
37517;SDS011;23366;52.498;13.446;2023-02-28T06:57:35;7.82;;;3.72;;
37517;SDS011;23366;52.498;13.446;2023-02-28T07:00:06;9.25;;;3.45;;
37517;SDS011;23366;52.498;13.446;2023-02-28T07:02:35;5.75;;;2.95;;
37517;SDS011;23366;52.498;13.446;2023-02-28T07:05:01;7.07;;;3.30;;
37517;SDS011;23366;52.498;13.446;2023-02-28T07:07:26;10.35;;;3.65;;
37517;SDS011;23366;52.498;13.446;2023-02-28T07:09:52;8.95;;;3.58;;
37517;SDS011;23366;52.498;13.446;2023-02-28T07:12:17;10.00;;;4.93;;
37517;SDS011;23366;52.498;13.446;2023-02-28T07:14:43;6.57;;;3.60;;
37517;SDS011;23366;52.498;13.446;2023-02-28T07:17:09;11.32;;;4.57;;
37517;SDS011;23366;52.498;13.446;2023-02-28T07:19:37;13.20;;;4.18;;
37517;SDS011;23366;52.498;13.446;2023-02-28T07:22:03;6.10;;;3.55;;
37517;SDS011;23366;52.498;13.446;2023-02-28T07:24:29;7.00;;;3.50;;
37517;SDS011;23366;52.498;13.446;2023-02-28T07:26:55;6.95;;;3.08;;
37517;SDS011;23366;52.498;13.446;2023-02-28T07:29:20;8.93;;;3.55;;
37517;SDS011;23366;52.498;13.446;2023-02-28T07:31:46;11.48;;;2.83;;
37517;SDS011;23366;52.498;13.446;2023-02-28T07:34:12;7.30;;;3.42;;
37517;SDS011;23366;52.498;13.446;2023-02-28T07:36:38;9.30;;;3.55;;
37517;SDS011;23366;52.498;13.446;2023-02-28T07:39:04;6.22;;;3.00;;
37517;SDS011;23366;52.498;13.446;2023-02-28T07:41:30;7.90;;;3.20;;
37517;SDS011;23366;52.498;13.446;2023-02-28T07:43:58;6.25;;;3.42;;
37517;SDS011;23366;52.498;13.446;2023-02-28T07:46:24;6.18;;;3.38;;
37517;SDS011;23366;52.498;13.446;2023-02-28T07:48:50;6.65;;;3.60;;
37517;SDS011;23366;52.498;13.446;2023-02-28T07:51:16;6.55;;;3.13;;
37517;SDS011;23366;52.498;13.446;2023-02-28T07:53:41;6.40;;;2.45;;
37517;SDS011;23366;52.498;13.446;2023-02-28T07:56:07;8.18;;;4.10;;
37517;SDS011;23366;52.498;13.446;2023-02-28T07:58:33;4.40;;;2.38;;
37517;SDS011;23366;52.498;13.446;2023-02-28T08:01:08;11.52;;;2.90;;
37517;SDS011;23366;52.498;13.446;2023-02-28T08:03:34;5.10;;;2.33;;
37517;SDS011;23366;52.498;13.446;2023-02-28T08:06:01;5.40;;;2.80;;
37517;SDS011;23366;52.498;13.446;2023-02-28T08:08:27;6.18;;;2.63;;
37517;SDS011;23366;52.498;13.446;2023-02-28T08:10:59;3.92;;;2.90;;
37517;SDS011;23366;52.498;13.446;2023-02-28T08:13:26;4.32;;;1.95;;
37517;SDS011;23366;52.498;13.446;2023-02-28T08:15:55;8.27;;;2.42;;
37517;SDS011;23366;52.498;13.446;2023-02-28T08:18:21;6.03;;;1.65;;
37517;SDS011;23366;52.498;13.446;2023-02-28T08:20:48;2.65;;;1.75;;
37517;SDS011;23366;52.498;13.446;2023-02-28T08:23:14;4.10;;;1.80;;
37517;SDS011;23366;52.498;13.446;2023-02-28T08:25:39;4.82;;;1.65;;
37517;SDS011;23366;52.498;13.446;2023-02-28T08:28:05;4.18;;;1.75;;
37517;SDS011;23366;52.498;13.446;2023-02-28T08:30:31;3.70;;;2.15;;
37517;SDS011;23366;52.498;13.446;2023-02-28T08:32:57;4.15;;;1.50;;
37517;SDS011;23366;52.498;13.446;2023-02-28T08:35:22;2.70;;;2.08;;
37517;SDS011;23366;52.498;13.446;2023-02-28T08:37:48;4.18;;;2.00;;
37517;SDS011;23366;52.498;13.446;2023-02-28T08:40:15;3.58;;;1.73;;
37517;SDS011;23366;52.498;13.446;2023-02-28T08:42:46;7.57;;;2.53;;
37517;SDS011;23366;52.498;13.446;2023-02-28T08:45:12;5.75;;;3.10;;
37517;SDS011;23366;52.498;13.446;2023-02-28T08:47:38;3.08;;;1.83;;
37517;SDS011;23366;52.498;13.446;2023-02-28T08:50:05;4.07;;;2.17;;
37517;SDS011;23366;52.498;13.446;2023-02-28T08:52:31;3.72;;;1.80;;
37517;SDS011;23366;52.498;13.446;2023-02-28T08:54:57;3.75;;;1.35;;
37517;SDS011;23366;52.498;13.446;2023-02-28T08:57:23;3.22;;;1.50;;
37517;SDS011;23366;52.498;13.446;2023-02-28T08:59:51;5.07;;;2.05;;
37517;SDS011;23366;52.498;13.446;2023-02-28T09:02:16;3.08;;;1.35;;
37517;SDS011;23366;52.498;13.446;2023-02-28T09:04:42;2.28;;;1.30;;
37517;SDS011;23366;52.498;13.446;2023-02-28T09:07:10;2.45;;;1.73;;
37517;SDS011;23366;52.498;13.446;2023-02-28T09:09:36;4.55;;;1.83;;
37517;SDS011;23366;52.498;13.446;2023-02-28T09:12:02;3.50;;;1.65;;
37517;SDS011;23366;52.498;13.446;2023-02-28T09:14:28;3.58;;;1.73;;
37517;SDS011;23366;52.498;13.446;2023-02-28T09:16:53;1.67;;;1.00;;
37517;SDS011;23366;52.498;13.446;2023-02-28T09:19:19;1.48;;;1.05;;
37517;SDS011;23366;52.498;13.446;2023-02-28T09:21:45;2.20;;;1.40;;
37517;SDS011;23366;52.498;13.446;2023-02-28T09:24:11;2.75;;;1.17;;
37517;SDS011;23366;52.498;13.446;2023-02-28T09:26:39;4.07;;;1.30;;
37517;SDS011;23366;52.498;13.446;2023-02-28T09:29:05;2.47;;;1.38;;
37517;SDS011;23366;52.498;13.446;2023-02-28T09:31:31;2.25;;;1.42;;
37517;SDS011;23366;52.498;13.446;2023-02-28T09:33:57;8.98;;;1.70;;
37517;SDS011;23366;52.498;13.446;2023-02-28T09:36:24;3.72;;;1.45;;
37517;SDS011;23366;52.498;13.446;2023-02-28T09:38:50;2.22;;;1.58;;
37517;SDS011;23366;52.498;13.446;2023-02-28T09:41:19;3.22;;;2.03;;
37517;SDS011;23366;52.498;13.446;2023-02-28T09:43:52;5.55;;;1.30;;
37517;SDS011;23366;52.498;13.446;2023-02-28T09:46:44;3.30;;;1.67;;
37517;SDS011;23366;52.498;13.446;2023-02-28T09:49:17;4.60;;;1.52;;
37517;SDS011;23366;52.498;13.446;2023-02-28T09:51:58;2.75;;;1.27;;
37517;SDS011;23366;52.498;13.446;2023-02-28T09:54:30;3.08;;;1.50;;
37517;SDS011;23366;52.498;13.446;2023-02-28T09:59:48;3.13;;;1.85;;
37517;SDS011;23366;52.498;13.446;2023-02-28T10:02:40;2.42;;;1.70;;
37517;SDS011;23366;52.498;13.446;2023-02-28T10:05:39;2.78;;;1.73;;
37517;SDS011;23366;52.498;13.446;2023-02-28T10:08:14;2.42;;;1.10;;
37517;SDS011;23366;52.498;13.446;2023-02-28T10:10:44;2.90;;;1.42;;
37517;SDS011;23366;52.498;13.446;2023-02-28T10:15:50;1.58;;;1.48;;
37517;SDS011;23366;52.498;13.446;2023-02-28T10:18:21;1.55;;;1.17;;
37517;SDS011;23366;52.498;13.446;2023-02-28T10:20:50;1.42;;;1.33;;
37517;SDS011;23366;52.498;13.446;2023-02-28T10:23:21;1.75;;;1.02;;
37517;SDS011;23366;52.498;13.446;2023-02-28T10:25:57;1.35;;;0.85;;
37517;SDS011;23366;52.498;13.446;2023-02-28T10:28:25;3.72;;;1.48;;
37517;SDS011;23366;52.498;13.446;2023-02-28T10:30:53;6.82;;;1.83;;
37517;SDS011;23366;52.498;13.446;2023-02-28T10:35:59;2.85;;;1.17;;
37517;SDS011;23366;52.498;13.446;2023-02-28T10:38:36;3.80;;;2.03;;
37517;SDS011;23366;52.498;13.446;2023-02-28T10:41:10;3.08;;;1.60;;
37517;SDS011;23366;52.498;13.446;2023-02-28T10:43:38;3.08;;;1.35;;
37517;SDS011;23366;52.498;13.446;2023-02-28T10:46:10;1.90;;;1.05;;
37517;SDS011;23366;52.498;13.446;2023-02-28T10:49:06;5.57;;;2.17;;
37517;SDS011;23366;52.498;13.446;2023-02-28T10:51:40;1.75;;;1.40;;
37517;SDS011;23366;52.498;13.446;2023-02-28T10:54:14;2.60;;;1.20;;
37517;SDS011;23366;52.498;13.446;2023-02-28T10:56:44;6.63;;;1.70;;
37517;SDS011;23366;52.498;13.446;2023-02-28T11:01:55;4.05;;;2.15;;
37517;SDS011;23366;52.498;13.446;2023-02-28T11:06:58;2.80;;;1.73;;
37517;SDS011;23366;52.498;13.446;2023-02-28T11:09:27;2.47;;;1.35;;
37517;SDS011;23366;52.498;13.446;2023-02-28T11:11:55;2.30;;;1.63;;
37517;SDS011;23366;52.498;13.446;2023-02-28T11:14:22;3.88;;;1.50;;
37517;SDS011;23366;52.498;13.446;2023-02-28T11:16:51;2.97;;;1.90;;
37517;SDS011;23366;52.498;13.446;2023-02-28T11:19:40;4.95;;;1.95;;
37517;SDS011;23366;52.498;13.446;2023-02-28T11:22:06;7.18;;;2.25;;
37517;SDS011;23366;52.498;13.446;2023-02-28T11:24:41;4.20;;;2.00;;
37517;SDS011;23366;52.498;13.446;2023-02-28T11:27:25;4.90;;;1.92;;
37517;SDS011;23366;52.498;13.446;2023-02-28T11:30:22;3.70;;;1.88;;
37517;SDS011;23366;52.498;13.446;2023-02-28T11:32:59;3.28;;;1.70;;
37517;SDS011;23366;52.498;13.446;2023-02-28T11:35:38;5.65;;;2.20;;
37517;SDS011;23366;52.498;13.446;2023-02-28T11:38:05;10.60;;;3.90;;
37517;SDS011;23366;52.498;13.446;2023-02-28T11:46:15;3.15;;;1.92;;
37517;SDS011;23366;52.498;13.446;2023-02-28T11:51:29;4.50;;;1.60;;
37517;SDS011;23366;52.498;13.446;2023-02-28T11:54:47;4.57;;;1.92;;
37517;SDS011;23366;52.498;13.446;2023-02-28T11:57:14;6.63;;;2.75;;
37517;SDS011;23366;52.498;13.446;2023-02-28T12:05:34;4.07;;;2.10;;
37517;SDS011;23366;52.498;13.446;2023-02-28T12:19:26;4.10;;;2.00;;
37517;SDS011;23366;52.498;13.446;2023-02-28T12:22:30;4.50;;;1.50;;
37517;SDS011;23366;52.498;13.446;2023-02-28T12:27:31;1.90;;;1.58;;
37517;SDS011;23366;52.498;13.446;2023-02-28T12:32:48;3.05;;;1.90;;
37517;SDS011;23366;52.498;13.446;2023-02-28T12:35:37;3.35;;;2.08;;
37517;SDS011;23366;52.498;13.446;2023-02-28T12:38:13;4.63;;;1.55;;
37517;SDS011;23366;52.498;13.446;2023-02-28T12:43:14;3.50;;;1.55;;
37517;SDS011;23366;52.498;13.446;2023-02-28T12:48:24;4.47;;;1.17;;
37517;SDS011;23366;52.498;13.446;2023-02-28T12:50:54;3.03;;;1.67;;
37517;SDS011;23366;52.498;13.446;2023-02-28T12:53:23;2.85;;;1.20;;
37517;SDS011;23366;52.498;13.446;2023-02-28T13:09:37;3.90;;;1.90;;
37517;SDS011;23366;52.498;13.446;2023-02-28T13:13:03;1.45;;;1.25;;
37517;SDS011;23366;52.498;13.446;2023-02-28T13:16:07;3.33;;;1.45;;
37517;SDS011;23366;52.498;13.446;2023-02-28T13:21:09;2.80;;;1.60;;
37517;SDS011;23366;52.498;13.446;2023-02-28T13:32:18;4.07;;;1.52;;
37517;SDS011;23366;52.498;13.446;2023-02-28T13:42:51;6.93;;;1.92;;
37517;SDS011;23366;52.498;13.446;2023-02-28T13:47:54;3.78;;;1.63;;
37517;SDS011;23366;52.498;13.446;2023-02-28T13:53:13;3.40;;;1.52;;
37517;SDS011;23366;52.498;13.446;2023-02-28T13:58:45;3.42;;;1.40;;
37517;SDS011;23366;52.498;13.446;2023-02-28T14:06:39;3.80;;;2.42;;
37517;SDS011;23366;52.498;13.446;2023-02-28T14:09:18;4.35;;;2.35;;
37517;SDS011;23366;52.498;13.446;2023-02-28T14:11:50;4.65;;;2.42;;
37517;SDS011;23366;52.498;13.446;2023-02-28T14:17:04;5.88;;;2.75;;
37517;SDS011;23366;52.498;13.446;2023-02-28T14:19:32;2.25;;;1.67;;
37517;SDS011;23366;52.498;13.446;2023-02-28T14:25:26;3.88;;;2.03;;
37517;SDS011;23366;52.498;13.446;2023-02-28T14:28:16;3.45;;;1.90;;
37517;SDS011;23366;52.498;13.446;2023-02-28T14:34:05;4.43;;;2.00;;
37517;SDS011;23366;52.498;13.446;2023-02-28T14:36:49;4.90;;;1.73;;
37517;SDS011;23366;52.498;13.446;2023-02-28T14:39:22;3.53;;;1.90;;
37517;SDS011;23366;52.498;13.446;2023-02-28T14:41:49;3.00;;;1.52;;
37517;SDS011;23366;52.498;13.446;2023-02-28T14:44:17;8.05;;;2.22;;
37517;SDS011;23366;52.498;13.446;2023-02-28T14:46:43;3.20;;;2.05;;
37517;SDS011;23366;52.498;13.446;2023-02-28T14:49:18;12.73;;;2.15;;
37517;SDS011;23366;52.498;13.446;2023-02-28T14:51:46;5.03;;;2.05;;
37517;SDS011;23366;52.498;13.446;2023-02-28T14:54:26;2.70;;;1.95;;
37517;SDS011;23366;52.498;13.446;2023-02-28T14:56:51;4.18;;;1.75;;
37517;SDS011;23366;52.498;13.446;2023-02-28T14:59:22;2.97;;;1.70;;
37517;SDS011;23366;52.498;13.446;2023-02-28T15:01:51;4.28;;;2.05;;
37517;SDS011;23366;52.498;13.446;2023-02-28T15:04:22;6.18;;;2.25;;
37517;SDS011;23366;52.498;13.446;2023-02-28T15:07:08;6.90;;;2.45;;
37517;SDS011;23366;52.498;13.446;2023-02-28T15:09:35;2.28;;;1.10;;
37517;SDS011;23366;52.498;13.446;2023-02-28T15:12:00;3.60;;;1.83;;
37517;SDS011;23366;52.498;13.446;2023-02-28T15:14:27;2.53;;;1.80;;
37517;SDS011;23366;52.498;13.446;2023-02-28T15:16:56;4.90;;;2.33;;
37517;SDS011;23366;52.498;13.446;2023-02-28T15:19:28;2.38;;;1.70;;
37517;SDS011;23366;52.498;13.446;2023-02-28T15:21:57;4.20;;;1.83;;
37517;SDS011;23366;52.498;13.446;2023-02-28T15:24:48;2.20;;;1.17;;
37517;SDS011;23366;52.498;13.446;2023-02-28T15:29:47;4.57;;;1.33;;
37517;SDS011;23366;52.498;13.446;2023-02-28T15:37:54;6.82;;;1.73;;
37517;SDS011;23366;52.498;13.446;2023-02-28T15:40:29;5.00;;;2.10;;
37517;SDS011;23366;52.498;13.446;2023-02-28T15:43:04;4.00;;;1.80;;
37517;SDS011;23366;52.498;13.446;2023-02-28T15:45:47;3.67;;;2.00;;
37517;SDS011;23366;52.498;13.446;2023-02-28T15:50:52;3.92;;;2.10;;
37517;SDS011;23366;52.498;13.446;2023-02-28T15:55:58;2.38;;;1.52;;
37517;SDS011;23366;52.498;13.446;2023-02-28T15:58:26;6.03;;;2.40;;
37517;SDS011;23366;52.498;13.446;2023-02-28T16:01:28;4.63;;;1.90;;
37517;SDS011;23366;52.498;13.446;2023-02-28T16:04:03;3.53;;;1.60;;
37517;SDS011;23366;52.498;13.446;2023-02-28T16:09:22;3.75;;;2.10;;
37517;SDS011;23366;52.498;13.446;2023-02-28T16:11:49;3.53;;;2.00;;
37517;SDS011;23366;52.498;13.446;2023-02-28T16:14:21;6.05;;;2.05;;
37517;SDS011;23366;52.498;13.446;2023-02-28T16:16:49;4.45;;;2.38;;
37517;SDS011;23366;52.498;13.446;2023-02-28T16:19:19;4.35;;;1.92;;
37517;SDS011;23366;52.498;13.446;2023-02-28T16:21:45;2.65;;;1.73;;
37517;SDS011;23366;52.498;13.446;2023-02-28T16:24:11;4.20;;;1.95;;
37517;SDS011;23366;52.498;13.446;2023-02-28T16:26:38;2.00;;;1.80;;
37517;SDS011;23366;52.498;13.446;2023-02-28T16:29:10;5.47;;;1.90;;
37517;SDS011;23366;52.498;13.446;2023-02-28T16:31:41;7.40;;;1.60;;
37517;SDS011;23366;52.498;13.446;2023-02-28T16:34:07;6.32;;;2.45;;
37517;SDS011;23366;52.498;13.446;2023-02-28T16:36:32;4.07;;;2.30;;
37517;SDS011;23366;52.498;13.446;2023-02-28T16:38:58;4.68;;;2.60;;
37517;SDS011;23366;52.498;13.446;2023-02-28T16:41:25;3.03;;;1.95;;
37517;SDS011;23366;52.498;13.446;2023-02-28T16:43:52;2.78;;;1.48;;
37517;SDS011;23366;52.498;13.446;2023-02-28T16:46:23;5.07;;;2.63;;
37517;SDS011;23366;52.498;13.446;2023-02-28T16:48:50;7.25;;;2.22;;
37517;SDS011;23366;52.498;13.446;2023-02-28T16:51:16;3.78;;;2.20;;
37517;SDS011;23366;52.498;13.446;2023-02-28T16:53:43;4.18;;;2.45;;
37517;SDS011;23366;52.498;13.446;2023-02-28T16:56:16;5.53;;;2.17;;
37517;SDS011;23366;52.498;13.446;2023-02-28T16:58:47;5.22;;;3.05;;
37517;SDS011;23366;52.498;13.446;2023-02-28T17:01:13;4.25;;;2.25;;
37517;SDS011;23366;52.498;13.446;2023-02-28T17:03:40;5.85;;;1.80;;
37517;SDS011;23366;52.498;13.446;2023-02-28T17:06:06;5.70;;;2.30;;
37517;SDS011;23366;52.498;13.446;2023-02-28T17:08:58;3.58;;;2.05;;
37517;SDS011;23366;52.498;13.446;2023-02-28T17:11:24;5.97;;;2.05;;
37517;SDS011;23366;52.498;13.446;2023-02-28T17:13:50;6.95;;;2.97;;
37517;SDS011;23366;52.498;13.446;2023-02-28T17:16:27;4.05;;;2.08;;
37517;SDS011;23366;52.498;13.446;2023-02-28T17:19:04;3.88;;;2.05;;